MSC Claudia — 3FZA6 — position and weather

sailwx.info

Track history (hours):
 
Tides and Currents Weather Stations Pressure Air Temp Water Temp Dewpoint Dewpoint Depression Visibility Wind Speed Wind Dir Waves Ship Positions

MSC Claudia

Last reported at 2015-Feb-01 11:33 UTC. Time now 2015-Feb-01 11:42 UTC.
Position N 01°51' E 102°29'.

Length 292 m; draft 7.5 m.

Type: Ship (hazmat cat A). MMSI: 370606000.

Date/timePositionNaut miles runAvg speedWind from/ knotsBaromVisibWave heightAir tempDewpointWater temp
2015-Feb-01 11:33N 01°51' E 102°29'8413.1
2015-Feb-01 05:10N 01°16' E 103°46'0 0.0
2015-Jan-31 09:20N 01°16' E 103°46'0 0.0
2015-Jan-31 06:26N 01°16' E 103°46'0 0.0
2015-Jan-31 00:20N 01°16' E 103°46'0 0.5
2015-Jan-30 23:33N 01°16' E 103°46'7 6.3
2015-Jan-30 22:30N 01°12' E 103°51'4 4.5
2015-Jan-30 21:33N 01°14' E 103°55'8 8.3
2015-Jan-30 20:33N 01°16' E 104°03'  
2015-Jan-24 20:18N 29°43' E 122°50'8211.8
2015-Jan-24 13:21N 31°02' E 123°18'26 2.9
2015-Jan-24 04:20N 31°01' E 122°47'0 0.0
2015-Jan-24 02:23N 31°01' E 122°47'0 0.1
2015-Jan-23 22:15N 31°01' E 122°48'24 4.3
2015-Jan-23 16:31N 30°42' E 123°06'6 1.9
2015-Jan-23 13:30N 30°43' E 122°59'2814.5
2015-Jan-23 11:34N 31°05' E 122°39'1010.2
2015-Jan-23 10:33N 31°05' E 122°27'1010.3
2015-Jan-23 09:33N 31°08' E 122°15'1414.3
2015-Jan-23 08:34N 31°15' E 122°00'1414.1
2015-Jan-23 07:34N 31°19' E 121°44'1010.2
2015-Jan-23 06:33N 31°24' E 121°34'7 6.6
2015-Jan-23 05:33N 31°28' E 121°28'9 9.5
2015-Jan-23 04:33N 31°34' E 121°19'1413.9
2015-Jan-23 03:33N 31°43' E 121°07'1313.1
2015-Jan-23 02:33N 31°50' E 120°54'10 8.2
2015-Jan-23 01:22N 31°59' E 120°49'0 0.1
2015-Jan-23 00:33N 31°59' E 120°50'0 0.5
2015-Jan-22 23:33N 31°59' E 120°50'1 0.6
2015-Jan-22 22:34N 31°60' E 120°50'0 0.1
2015-Jan-22 21:33N 31°60' E 120°50'0 0.0
2015-Jan-22 20:27N 31°60' E 120°50'0 0.1
2015-Jan-22 19:33N 31°60' E 120°50'0 0.0
2015-Jan-22 18:33N 31°60' E 120°50'0 0.0
2015-Jan-22 17:30N 31°60' E 120°50'0 0.0
2015-Jan-22 16:33N 31°60' E 120°50'0 0.0
2015-Jan-22 15:33N 31°60' E 120°50'0 0.0
2015-Jan-22 14:24N 31°60' E 120°50'0 0.0
2015-Jan-22 13:33N 31°60' E 120°50'0 0.0
2015-Jan-22 12:33N 31°60' E 120°50'  
Track history (hours):
 
Tides and Currents Weather Stations Pressure Air Temp Water Temp Dewpoint Dewpoint Depression Visibility Wind Speed Wind Dir Waves Ship Positions

MSC Claudia

Last reported at 2015-Feb-01 11:33 UTC. Time now 2015-Feb-01 11:42 UTC.
Position N 01°51' E 102°29'.

Length 292 m; draft 7.5 m.

Type: Ship (hazmat cat A). MMSI: 370606000.

Date/timePositionNaut miles runAvg speedWind from/ knotsBaromVisibWave heightAir tempDewpointWater temp
2015-Feb-01 11:33N 01°51' E 102°29'8413.1
2015-Feb-01 05:10N 01°16' E 103°46'0 0.0
2015-Jan-31 09:20N 01°16' E 103°46'0 0.0
2015-Jan-31 06:26N 01°16' E 103°46'0 0.0
2015-Jan-31 00:20N 01°16' E 103°46'0 0.5
2015-Jan-30 23:33N 01°16' E 103°46'7 6.3
2015-Jan-30 22:30N 01°12' E 103°51'4 4.5
2015-Jan-30 21:33N 01°14' E 103°55'8 8.3
2015-Jan-30 20:33N 01°16' E 104°03'  
2015-Jan-24 20:18N 29°43' E 122°50'8211.8
2015-Jan-24 13:21N 31°02' E 123°18'26 2.9
2015-Jan-24 04:20N 31°01' E 122°47'0 0.0
2015-Jan-24 02:23N 31°01' E 122°47'0 0.1
2015-Jan-23 22:15N 31°01' E 122°48'24 4.3
2015-Jan-23 16:31N 30°42' E 123°06'6 1.9
2015-Jan-23 13:30N 30°43' E 122°59'2814.5
2015-Jan-23 11:34N 31°05' E 122°39'1010.2
2015-Jan-23 10:33N 31°05' E 122°27'1010.3
2015-Jan-23 09:33N 31°08' E 122°15'1414.3
2015-Jan-23 08:34N 31°15' E 122°00'1414.1
2015-Jan-23 07:34N 31°19' E 121°44'1010.2
2015-Jan-23 06:33N 31°24' E 121°34'7 6.6
2015-Jan-23 05:33N 31°28' E 121°28'9 9.5
2015-Jan-23 04:33N 31°34' E 121°19'1413.9
2015-Jan-23 03:33N 31°43' E 121°07'1313.1
2015-Jan-23 02:33N 31°50' E 120°54'10 8.2
2015-Jan-23 01:22N 31°59' E 120°49'0 0.1
2015-Jan-23 00:33N 31°59' E 120°50'0 0.5
2015-Jan-22 23:33N 31°59' E 120°50'1 0.6
2015-Jan-22 22:34N 31°60' E 120°50'0 0.1
2015-Jan-22 21:33N 31°60' E 120°50'0 0.0
2015-Jan-22 20:27N 31°60' E 120°50'0 0.1
2015-Jan-22 19:33N 31°60' E 120°50'0 0.0
2015-Jan-22 18:33N 31°60' E 120°50'0 0.0
2015-Jan-22 17:30N 31°60' E 120°50'0 0.0
2015-Jan-22 16:33N 31°60' E 120°50'0 0.0
2015-Jan-22 15:33N 31°60' E 120°50'0 0.0
2015-Jan-22 14:24N 31°60' E 120°50'0 0.0
2015-Jan-22 13:33N 31°60' E 120°50'0 0.0
2015-Jan-22 12:33N 31°60' E 120°50'  

Dump ship's entire track history